Wetterdaten: Dienstag, 07.10.2014
Datum Zeit Temperatur Luftfeuchte Luftdruck Regen Wind Richtung Richtung Taupunkt Windchill Windben
07.10.2014 00:00 7,3 C 91 % 1014,1 hPa 0,0 l/m 0,0 km/h (0 Bft) S-SO 157 5,9 C 22,8 C 0,0 km/h (0 Bft)
07.10.2014 00:10 7,7 C 91 % 1013,9 hPa 0,0 l/m 0,0 km/h (0 Bft) S-SO 157 6,3 C 22,8 C 0,0 km/h (0 Bft)
07.10.2014 00:20 7,8 C 92 % 1013,9 hPa 0,0 l/m 0,0 km/h (0 Bft) S-SO 157 6,6 C 22,8 C 0,0 km/h (0 Bft)
07.10.2014 00:30 7,5 C 92 % 1013,9 hPa 0,0 l/m 0,0 km/h (0 Bft) S-SO 157 6,3 C 22,8 C 0,0 km/h (0 Bft)
07.10.2014 00:40 7,1 C 92 % 1013,9 hPa 0,0 l/m 0,0 km/h (0 Bft) S-SO 157 5,9 C 22,8 C 0,0 km/h (0 Bft)
07.10.2014 00:50 7,2 C 92 % 1014,1 hPa 0,0 l/m 0,0 km/h (0 Bft) S-SO 157 6,0 C 22,8 C 0,0 km/h (0 Bft)
07.10.2014 01:00 7,3 C 92 % 1014,1 hPa 0,0 l/m 0,0 km/h (0 Bft) S-SO 157 6,1 C 22,8 C 0,0 km/h (0 Bft)
07.10.2014 01:08 7,6 C 92 % 1014,2 hPa 0,0 l/m 0,0 km/h (0 Bft) S-SO 157 6,4 C 22,8 C 0,0 km/h (0 Bft)
07.10.2014 01:10 8,3 C 92 % 1014,2 hPa 0,0 l/m 0,0 km/h (0 Bft) S-SO 157 7,1 C 22,8 C 0,0 km/h (0 Bft)
07.10.2014 01:20 8,6 C 93 % 1014,3 hPa 0,0 l/m 0,0 km/h (0 Bft) S-SO 157 7,5 C 22,8 C 0,0 km/h (0 Bft)
07.10.2014 01:30 8,7 C 93 % 1014,3 hPa 0,0 l/m 0,0 km/h (0 Bft) S-SO 157 7,6 C 22,8 C 0,0 km/h (0 Bft)
07.10.2014 01:40 8,4 C 93 % 1014,6 hPa 0,0 l/m 0,0 km/h (0 Bft) S-SO 157 7,3 C 22,8 C 0,0 km/h (0 Bft)
07.10.2014 01:50 8,5 C 93 % 1014,6 hPa 0,0 l/m 0,0 km/h (0 Bft) S-SO 157 7,4 C 22,8 C 0,0 km/h (0 Bft)
07.10.2014 02:00 7,4 C 93 % 1014,6 hPa 0,0 l/m 0,0 km/h (0 Bft) S-SO 157 6,3 C 22,8 C 0,0 km/h (0 Bft)
07.10.2014 02:10 7,4 C 93 % 1014,6 hPa 0,0 l/m 0,0 km/h (0 Bft) S-SO 157 6,3 C 22,8 C 0,0 km/h (0 Bft)
07.10.2014 02:20 7,1 C 93 % 1014,6 hPa 0,0 l/m 0,0 km/h (0 Bft) S-SO 157 6,0 C 22,8 C 0,0 km/h (0 Bft)
07.10.2014 02:30 6,8 C 93 % 1014,7 hPa 0,0 l/m 0,0 km/h (0 Bft) S-SO 157 5,7 C 22,8 C 0,0 km/h (0 Bft)
07.10.2014 02:40 7,1 C 93 % 1014,7 hPa 0,0 l/m 0,0 km/h (0 Bft) S-SO 157 6,0 C 22,8 C 0,0 km/h (0 Bft)
07.10.2014 02:50 6,8 C 93 % 1014,9 hPa 0,0 l/m 0,0 km/h (0 Bft) S-SO 157 5,7 C 22,8 C 0,0 km/h (0 Bft)
07.10.2014 03:00 7,0 C 93 % 1014,9 hPa 0,0 l/m 0,0 km/h (0 Bft) S-SO 157 5,9 C 22,8 C 0,0 km/h (0 Bft)
07.10.2014 03:10 6,6 C 93 % 1014,8 hPa 0,0 l/m 0,0 km/h (0 Bft) S-SO 157 5,6 C 22,8 C 0,0 km/h (0 Bft)
07.10.2014 03:20 6,9 C 93 % 1014,8 hPa 0,0 l/m 0,0 km/h (0 Bft) S-SO 157 5,8 C 22,8 C 0,0 km/h (0 Bft)
07.10.2014 03:30 6,9 C 93 % 1014,8 hPa 0,0 l/m 0,0 km/h (0 Bft) S-SO 157 5,8 C 22,8 C 0,0 km/h (0 Bft)
07.10.2014 03:40 6,3 C 93 % 1014,8 hPa 0,0 l/m 0,0 km/h (0 Bft) S-SO 157 5,3 C 22,8 C 0,0 km/h (0 Bft)
07.10.2014 03:50 6,8 C 93 % 1014,8 hPa 0,0 l/m 0,0 km/h (0 Bft) S-SO 157 5,7 C 22,8 C 0,0 km/h (0 Bft)
07.10.2014 04:00 6,2 C 93 % 1014,8 hPa 0,0 l/m 0,0 km/h (0 Bft) S-SO 157 5,2 C 22,8 C 0,0 km/h (0 Bft)
07.10.2014 04:08 6,0 C 93 % 1014,6 hPa 0,0 l/m 0,0 km/h (0 Bft) S-SO 157 5,0 C 22,8 C 0,0 km/h (0 Bft)
07.10.2014 04:20 5,7 C 94 % 1014,6 hPa 0,0 l/m 0,0 km/h (0 Bft) S-SO 157 4,8 C 22,8 C 0,0 km/h (0 Bft)
07.10.2014 04:30 5,6 C 94 % 1014,6 hPa 0,0 l/m 0,0 km/h (0 Bft) S-SO 157 4,7 C 22,8 C 0,0 km/h (0 Bft)
07.10.2014 04:40 5,5 C 94 % 1014,4 hPa 0,0 l/m 0,0 km/h (0 Bft) S-SO 157 4,6 C 22,8 C 0,0 km/h (0 Bft)
07.10.2014 04:50 5,5 C 94 % 1014,4 hPa 0,0 l/m 0,0 km/h (0 Bft) S-SO 157 4,6 C 22,8 C 0,0 km/h (0 Bft)
07.10.2014 05:00 5,4 C 94 % 1014,4 hPa 0,0 l/m 0,0 km/h (0 Bft) S-SO 157 4,5 C 22,8 C 0,0 km/h (0 Bft)
07.10.2014 05:10 5,2 C 94 % 1014,4 hPa 0,0 l/m 0,0 km/h (0 Bft) S-SO 157 4,3 C 22,8 C 0,0 km/h (0 Bft)
07.10.2014 05:20 5,2 C 94 % 1014,4 hPa 0,0 l/m 0,0 km/h (0 Bft) S-SO 157 4,3 C 22,8 C 0,0 km/h (0 Bft)
07.10.2014 05:30 5,0 C 94 % 1014,1 hPa 0,0 l/m 0,0 km/h (0 Bft) S-SO 157 4,1 C 22,8 C 0,0 km/h (0 Bft)
07.10.2014 05:40 5,0 C 94 % 1014,1 hPa 0,0 l/m 0,0 km/h (0 Bft) S-SO 157 4,1 C 22,8 C 0,0 km/h (0 Bft)
07.10.2014 05:50 5,3 C 94 % 1013,9 hPa 0,0 l/m 0,0 km/h (0 Bft) S-SO 157 4,4 C 22,8 C 0,0 km/h (0 Bft)
07.10.2014 06:00 5,5 C 94 % 1013,9 hPa 0,0 l/m 0,0 km/h (0 Bft) S-SO 157 4,6 C 22,8 C 0,0 km/h (0 Bft)
07.10.2014 06:10 5,1 C 94 % 1014,1 hPa 0,0 l/m 0,0 km/h (0 Bft) S-SO 157 4,2 C 22,8 C 0,0 km/h (0 Bft)
07.10.2014 06:20 4,6 C 94 % 1014,1 hPa 0,0 l/m 0,0 km/h (0 Bft) S-SO 157 3,7 C 22,8 C 0,0 km/h (0 Bft)
07.10.2014 06:30 4,7 C 94 % 1014,0 hPa 0,0 l/m 0,0 km/h (0 Bft) S-SO 157 3,8 C 22,8 C 0,0 km/h (0 Bft)
07.10.2014 06:40 4,6 C 94 % 1014,0 hPa 0,0 l/m 0,0 km/h (0 Bft) S-SO 157 3,7 C 22,8 C 0,0 km/h (0 Bft)
07.10.2014 06:50 4,3 C 94 % 1014,1 hPa 0,0 l/m 0,0 km/h (0 Bft) S-SO 157 3,4 C 22,8 C 0,0 km/h (0 Bft)
07.10.2014 07:00 4,6 C 94 % 1014,1 hPa 0,0 l/m 0,0 km/h (0 Bft) S-SO 157 3,7 C 22,8 C 0,0 km/h (0 Bft)
07.10.2014 07:08 5,4 C 94 % 1014,1 hPa 0,0 l/m 0,0 km/h (0 Bft) S-SO 157 4,5 C 22,8 C 0,0 km/h (0 Bft)
07.10.2014 07:10 4,7 C 95 % 1014,1 hPa 0,0 l/m 0,0 km/h (0 Bft) S-SO 157 4,0 C 22,8 C 0,0 km/h (0 Bft)
07.10.2014 07:20 5,6 C 95 % 1014,0 hPa 0,0 l/m 0,0 km/h (0 Bft) S-SO 157 4,9 C 22,8 C 0,0 km/h (0 Bft)
07.10.2014 07:30 5,6 C 95 % 1014,0 hPa 0,0 l/m 0,0 km/h (0 Bft) S-SO 157 4,9 C 22,8 C 0,0 km/h (0 Bft)
07.10.2014 07:40 5,2 C 95 % 1014,0 hPa 0,0 l/m 0,0 km/h (0 Bft) S-SO 157 4,5 C 22,8 C 0,0 km/h (0 Bft)
07.10.2014 07:50 5,2 C 94 % 1014,0 hPa 0,0 l/m 0,0 km/h (0 Bft) S-SO 157 4,3 C 22,8 C 0,0 km/h (0 Bft)
07.10.2014 08:00 5,9 C 95 % 1013,8 hPa 0,0 l/m 0,0 km/h (0 Bft) S-SO 157 5,2 C 22,8 C 0,0 km/h (0 Bft)
07.10.2014 08:10 5,9 C 95 % 1013,8 hPa 0,0 l/m 0,0 km/h (0 Bft) S-SO 157 5,2 C 22,8 C 0,0 km/h (0 Bft)
07.10.2014 08:20 6,3 C 94 % 1013,8 hPa 0,0 l/m 0,0 km/h (0 Bft) S-SO 157 5,4 C 22,8 C 0,0 km/h (0 Bft)
07.10.2014 08:30 6,3 C 94 % 1013,8 hPa 0,0 l/m 0,0 km/h (0 Bft) S-SO 157 5,4 C 22,8 C 0,0 km/h (0 Bft)
07.10.2014 08:40 6,4 C 94 % 1013,8 hPa 0,0 l/m 0,0 km/h (0 Bft) S-SO 157 5,5 C 22,8 C 0,0 km/h (0 Bft)
07.10.2014 08:50 6,4 C 94 % 1013,9 hPa 0,0 l/m 0,0 km/h (0 Bft) S-SO 157 5,5 C 22,8 C 0,0 km/h (0 Bft)
07.10.2014 09:00 6,9 C 94 % 1013,9 hPa 0,0 l/m 0,0 km/h (0 Bft) S-SO 157 6,0 C 22,8 C 0,0 km/h (0 Bft)
07.10.2014 09:10 7,1 C 93 % 1013,8 hPa 0,0 l/m 0,0 km/h (0 Bft) S-SO 157 6,0 C 22,8 C 0,0 km/h (0 Bft)
07.10.2014 09:20 8,2 C 93 % 1013,8 hPa 0,0 l/m 0,0 km/h (0 Bft) S-SO 157 7,1 C 22,8 C 0,0 km/h (0 Bft)
07.10.2014 09:30 8,6 C 93 % 1014,0 hPa 0,0 l/m 0,0 km/h (0 Bft) S-SO 157 7,5 C 22,8 C 0,0 km/h (0 Bft)
07.10.2014 09:40 8,5 C 93 % 1014,0 hPa 0,0 l/m 0,0 km/h (0 Bft) S-SO 157 7,4 C 22,8 C 0,0 km/h (0 Bft)
07.10.2014 09:50 9,2 C 93 % 1014,1 hPa 0,0 l/m 0,0 km/h (0 Bft) S-SO 157 8,1 C 22,8 C 0,0 km/h (0 Bft)
07.10.2014 09:58 11,5 C 91 % 1014,1 hPa 0,0 l/m 0,0 km/h (0 Bft) S-SO 157 10,1 C 22,8 C 0,0 km/h (0 Bft)
07.10.2014 10:00 12,7 C 89 % 1014,2 hPa 0,0 l/m 0,0 km/h (0 Bft) S-SO 157 10,9 C 22,8 C 0,0 km/h (0 Bft)
07.10.2014 10:10 13,1 C 87 % 1014,2 hPa 0,0 l/m 0,0 km/h (0 Bft) S-SO 157 11,0 C 22,8 C 0,0 km/h (0 Bft)
07.10.2014 10:20 13,7 C 83 % 1014,2 hPa 0,0 l/m 0,0 km/h (0 Bft) S-SO 157 10,9 C 22,8 C 0,0 km/h (0 Bft)
07.10.2014 10:30 15,2 C 78 % 1014,2 hPa 0,0 l/m 0,0 km/h (0 Bft) S-SO 157 11,4 C 22,8 C 0,0 km/h (0 Bft)
07.10.2014 10:40 14,9 C 74 % 1014,2 hPa 0,0 l/m 0,0 km/h (0 Bft) S-SO 157 10,3 C 22,8 C 0,0 km/h (0 Bft)
07.10.2014 10:50 14,5 C 67 % 1014,2 hPa 0,0 l/m 0,0 km/h (0 Bft) S-SO 157 8,4 C 22,8 C 0,0 km/h (0 Bft)
07.10.2014 11:00 16,0 C 62 % 1014,0 hPa 0,0 l/m 0,0 km/h (0 Bft) S-SO 157 8,7 C 22,8 C 0,0 km/h (0 Bft)
07.10.2014 11:10 17,3 C 55 % 1014,0 hPa 0,0 l/m 0,0 km/h (0 Bft) S-SO 157 8,2 C 22,8 C 0,0 km/h (0 Bft)
07.10.2014 11:20 17,3 C 55 % 1014,0 hPa 0,0 l/m 0,0 km/h (0 Bft) S-SO 157 8,2 C 22,8 C 0,0 km/h (0 Bft)
07.10.2014 11:30 17,9 C 44 % 1013,9 hPa 0,0 l/m 0,0 km/h (0 Bft) S-SO 157 5,5 C 22,8 C 0,0 km/h (0 Bft)
07.10.2014 11:40 19,1 C 49 % 1013,9 hPa 0,0 l/m 0,0 km/h (0 Bft) S-SO 157 8,1 C 22,8 C 0,0 km/h (0 Bft)
07.10.2014 11:50 20,6 C 46 % 1014,2 hPa 0,0 l/m 0,0 km/h (0 Bft) S-SO 157 8,6 C 22,8 C 0,0 km/h (0 Bft)
07.10.2014 12:00 21,2 C 44 % 1014,2 hPa 0,0 l/m 0,0 km/h (0 Bft) S-SO 157 8,5 C 22,8 C 0,0 km/h (0 Bft)
07.10.2014 12:10 20,6 C 48 % 1014,1 hPa 0,0 l/m 0,0 km/h (0 Bft) S-SO 157 9,2 C 22,8 C 0,0 km/h (0 Bft)
07.10.2014 12:20 22,6 C 43 % 1014,1 hPa 0,0 l/m 0,0 km/h (0 Bft) S-SO 157 9,4 C 22,8 C 0,0 km/h (0 Bft)
07.10.2014 12:24 23,6 C 38 % 1014,2 hPa 0,0 l/m 0,0 km/h (0 Bft) S-SO 157 8,4 C 22,8 C 0,0 km/h (0 Bft)
07.10.2014 12:30 24,3 C 39 % 1014,2 hPa 0,0 l/m 0,0 km/h (0 Bft) S-SO 157 9,4 C 22,8 C 0,0 km/h (0 Bft)
07.10.2014 12:40 24,0 C 33 % 1014,2 hPa 0,0 l/m 0,0 km/h (0 Bft) S-SO 157 6,7 C 22,8 C 0,0 km/h (0 Bft)
07.10.2014 12:50 23,2 C 35 % 1014,2 hPa 0,0 l/m 0,0 km/h (0 Bft) S-SO 157 6,9 C 22,8 C 0,0 km/h (0 Bft)
07.10.2014 13:00 24,0 C 35 % 1014,2 hPa 0,0 l/m 0,0 km/h (0 Bft) S-SO 157 7,6 C 22,8 C 0,0 km/h (0 Bft)
07.10.2014 13:10 22,3 C 39 % 1014,2 hPa 0,0 l/m 0,0 km/h (0 Bft) S-SO 157 7,7 C 22,8 C 0,0 km/h (0 Bft)
07.10.2014 13:20 22,8 C 42 % 1013,9 hPa 0,0 l/m 0,0 km/h (0 Bft) S-SO 157 9,2 C 22,8 C 0,0 km/h (0 Bft)
07.10.2014 13:30 23,2 C 38 % 1013,9 hPa 0,0 l/m 0,0 km/h (0 Bft) S-SO 157 8,1 C 22,8 C 0,0 km/h (0 Bft)
07.10.2014 13:40 22,7 C 39 % 1013,9 hPa 0,0 l/m 0,0 km/h (0 Bft) S-SO 157 8,0 C 22,8 C 0,0 km/h (0 Bft)
07.10.2014 13:50 23,6 C 37 % 1013,9 hPa 0,0 l/m 0,0 km/h (0 Bft) S-SO 157 8,0 C 22,8 C 0,0 km/h (0 Bft)
07.10.2014 14:00 23,4 C 35 % 1014,1 hPa 0,0 l/m 0,0 km/h (0 Bft) S-SO 157 7,1 C 22,8 C 0,0 km/h (0 Bft)
07.10.2014 14:10 23,1 C 38 % 1014,1 hPa 0,0 l/m 0,0 km/h (0 Bft) S-SO 157 8,0 C 22,8 C 0,0 km/h (0 Bft)
07.10.2014 14:20 23,1 C 35 % 1014,1 hPa 0,0 l/m 0,0 km/h (0 Bft) S-SO 157 6,8 C 22,8 C 0,0 km/h (0 Bft)
07.10.2014 14:30 23,6 C 38 % 1014,1 hPa 0,0 l/m 0,0 km/h (0 Bft) S-SO 157 8,4 C 22,8 C 0,0 km/h (0 Bft)
07.10.2014 14:40 24,2 C 34 % 1014,0 hPa 0,0 l/m 0,0 km/h (0 Bft) S-SO 157 7,3 C 22,8 C 0,0 km/h (0 Bft)
07.10.2014 14:50 23,7 C 33 % 1014,0 hPa 0,0 l/m 0,0 km/h (0 Bft) S-SO 157 6,5 C 22,8 C 0,0 km/h (0 Bft)
07.10.2014 15:00 23,4 C 35 % 1013,9 hPa 0,0 l/m 0,0 km/h (0 Bft) S-SO 157 7,1 C 22,8 C 0,0 km/h (0 Bft)
07.10.2014 15:10 22,1 C 38 % 1013,9 hPa 0,0 l/m 0,0 km/h (0 Bft) S-SO 157 7,1 C 22,8 C 0,0 km/h (0 Bft)
07.10.2014 15:20 23,1 C 39 % 1014,1 hPa 0,0 l/m 0,0 km/h (0 Bft) S-SO 157 8,4 C 22,8 C 0,0 km/h (0 Bft)
07.10.2014 15:30 24,2 C 36 % 1014,1 hPa 0,0 l/m 0,0 km/h (0 Bft) S-SO 157 8,2 C 22,8 C 0,0 km/h (0 Bft)
07.10.2014 15:40 22,8 C 39 % 1014,1 hPa 0,0 l/m 0,0 km/h (0 Bft) S-SO 157 8,1 C 22,8 C 0,0 km/h (0 Bft)
07.10.2014 15:50 22,1 C 39 % 1014,1 hPa 0,0 l/m 0,0 km/h (0 Bft) S-SO 157 7,5 C 22,8 C 0,0 km/h (0 Bft)
07.10.2014 16:00 21,7 C 41 % 1014,1 hPa 0,0 l/m 0,0 km/h (0 Bft) S-SO 157 7,9 C 22,8 C 0,0 km/h (0 Bft)
07.10.2014 16:10 20,9 C 44 % 1014,1 hPa 0,0 l/m 0,0 km/h (0 Bft) S-SO 157 8,2 C 22,8 C 0,0 km/h (0 Bft)
07.10.2014 16:20 20,5 C 44 % 1013,9 hPa 0,0 l/m 0,0 km/h (0 Bft) S-SO 157 7,8 C 22,8 C 0,0 km/h (0 Bft)
07.10.2014 16:30 20,7 C 46 % 1013,9 hPa 0,0 l/m 0,0 km/h (0 Bft) S-SO 157 8,7 C 22,8 C 0,0 km/h (0 Bft)
07.10.2014 16:40 20,1 C 49 % 1014,1 hPa 0,0 l/m 0,0 km/h (0 Bft) S-SO 157 9,0 C 22,8 C 0,0 km/h (0 Bft)
07.10.2014 16:50 19,5 C 48 % 1014,1 hPa 0,0 l/m 0,0 km/h (0 Bft) S-SO 157 8,2 C 22,8 C 0,0 km/h (0 Bft)
07.10.2014 17:00 18,7 C 50 % 1014,0 hPa 0,0 l/m 0,0 km/h (0 Bft) S-SO 157 8,1 C 22,8 C 0,0 km/h (0 Bft)
07.10.2014 17:10 18,1 C 50 % 1014,0 hPa 0,0 l/m 0,0 km/h (0 Bft) S-SO 157 7,5 C 22,8 C 0,0 km/h (0 Bft)
07.10.2014 17:20 17,6 C 53 % 1013,9 hPa 0,0 l/m 0,0 km/h (0 Bft) S-SO 157 7,9 C 22,8 C 0,0 km/h (0 Bft)
07.10.2014 17:30 16,9 C 56 % 1013,9 hPa 0,0 l/m 0,0 km/h (0 Bft) S-SO 157 8,1 C 22,8 C 0,0 km/h (0 Bft)
07.10.2014 17:40 16,7 C 57 % 1014,1 hPa 0,0 l/m 0,0 km/h (0 Bft) S-SO 157 8,1 C 22,8 C 0,0 km/h (0 Bft)
07.10.2014 17:50 17,0 C 58 % 1014,1 hPa 0,0 l/m 0,0 km/h (0 Bft) S-SO 157 8,7 C 22,8 C 0,0 km/h (0 Bft)
07.10.2014 18:00 16,6 C 60 % 1014,1 hPa 0,0 l/m 0,0 km/h (0 Bft) S-SO 157 8,8 C 22,8 C 0,0 km/h (0 Bft)
07.10.2014 18:10 16,2 C 62 % 1014,1 hPa 0,0 l/m 0,0 km/h (0 Bft) S-SO 157 8,9 C 22,8 C 0,0 km/h (0 Bft)
07.10.2014 18:20 16,0 C 64 % 1014,3 hPa 0,0 l/m 0,0 km/h (0 Bft) S-SO 157 9,2 C 22,8 C 0,0 km/h (0 Bft)
07.10.2014 18:30 15,7 C 67 % 1014,3 hPa 0,0 l/m 0,0 km/h (0 Bft) S-SO 157 9,6 C 22,8 C 0,0 km/h (0 Bft)
07.10.2014 18:40 15,4 C 68 % 1014,2 hPa 0,0 l/m 0,0 km/h (0 Bft) S-SO 157 9,5 C 22,8 C 0,0 km/h (0 Bft)
07.10.2014 18:50 14,1 C 69 % 1014,2 hPa 0,0 l/m 0,0 km/h (0 Bft) S-SO 157 8,5 C 22,8 C 0,0 km/h (0 Bft)
07.10.2014 19:00 14,1 C 74 % 1014,7 hPa 0,0 l/m 0,0 km/h (0 Bft) S-SO 157 9,5 C 22,8 C 0,0 km/h (0 Bft)
07.10.2014 19:10 13,2 C 74 % 1014,7 hPa 0,0 l/m 0,0 km/h (0 Bft) S-SO 157 8,7 C 22,8 C 0,0 km/h (0 Bft)
07.10.2014 19:20 12,4 C 75 % 1014,7 hPa 0,0 l/m 0,0 km/h (0 Bft) S-SO 157 8,1 C 22,8 C 0,0 km/h (0 Bft)
07.10.2014 19:30 12,5 C 77 % 1014,7 hPa 0,0 l/m 0,0 km/h (0 Bft) S-SO 157 8,6 C 22,8 C 0,0 km/h (0 Bft)
07.10.2014 19:40 11,9 C 78 % 1014,8 hPa 0,0 l/m 0,0 km/h (0 Bft) S-SO 157 8,2 C 22,8 C 0,0 km/h (0 Bft)
07.10.2014 19:50 11,4 C 79 % 1014,8 hPa 0,0 l/m 0,0 km/h (0 Bft) S-SO 157 7,9 C 22,8 C 0,0 km/h (0 Bft)
07.10.2014 20:00 11,7 C 81 % 1015,0 hPa 0,0 l/m 0,0 km/h (0 Bft) S-SO 157 8,5 C 22,8 C 0,0 km/h (0 Bft)
07.10.2014 20:10 11,8 C 81 % 1015,0 hPa 0,0 l/m 0,0 km/h (0 Bft) S-SO 157 8,6 C 22,8 C 0,0 km/h (0 Bft)
07.10.2014 20:20 12,8 C 79 % 1015,2 hPa 0,0 l/m 0,0 km/h (0 Bft) S-SO 157 9,2 C 22,8 C 0,0 km/h (0 Bft)
07.10.2014 20:30 11,4 C 78 % 1015,2 hPa 0,0 l/m 0,0 km/h (0 Bft) S-SO 157 7,7 C 22,8 C 0,0 km/h (0 Bft)
07.10.2014 20:40 10,6 C 79 % 1015,5 hPa 0,0 l/m 0,0 km/h (0 Bft) S-SO 157 7,1 C 22,8 C 0,0 km/h (0 Bft)
07.10.2014 20:50 10,6 C 83 % 1015,5 hPa 0,0 l/m 0,0 km/h (0 Bft) S-SO 157 7,8 C 22,8 C 0,0 km/h (0 Bft)
07.10.2014 21:00 10,7 C 83 % 1015,4 hPa 0,0 l/m 0,0 km/h (0 Bft) S-SO 157 7,9 C 22,8 C 0,0 km/h (0 Bft)
07.10.2014 21:10 10,1 C 84 % 1015,4 hPa 0,0 l/m 0,0 km/h (0 Bft) S-SO 157 7,5 C 22,8 C 0,0 km/h (0 Bft)
07.10.2014 21:20 9,3 C 83 % 1015,8 hPa 0,0 l/m 0,0 km/h (0 Bft) S-SO 157 6,6 C 22,8 C 0,0 km/h (0 Bft)
07.10.2014 21:30 10,8 C 87 % 1015,8 hPa 0,0 l/m 0,0 km/h (0 Bft) S-SO 157 8,7 C 22,8 C 0,0 km/h (0 Bft)
07.10.2014 21:40 11,2 C 87 % 1016,1 hPa 0,0 l/m 0,0 km/h (0 Bft) S-SO 157 9,1 C 22,8 C 0,0 km/h (0 Bft)
07.10.2014 21:50 11,0 C 86 % 1016,1 hPa 0,0 l/m 0,0 km/h (0 Bft) S-SO 157 8,7 C 22,8 C 0,0 km/h (0 Bft)
07.10.2014 22:00 9,8 C 85 % 1015,9 hPa 0,0 l/m 0,0 km/h (0 Bft) S-SO 157 7,4 C 22,8 C 0,0 km/h (0 Bft)
07.10.2014 22:10 9,2 C 85 % 1015,9 hPa 0,0 l/m 0,0 km/h (0 Bft) S-SO 157 6,8 C 22,8 C 0,0 km/h (0 Bft)
07.10.2014 22:20 8,9 C 86 % 1016,2 hPa 0,0 l/m 0,0 km/h (0 Bft) S-SO 157 6,7 C 22,8 C 0,0 km/h (0 Bft)
07.10.2014 22:30 9,2 C 87 % 1016,2 hPa 0,0 l/m 0,0 km/h (0 Bft) S-SO 157 7,2 C 22,8 C 0,0 km/h (0 Bft)
07.10.2014 22:40 9,3 C 88 % 1016,3 hPa 0,0 l/m 0,0 km/h (0 Bft) S-SO 157 7,4 C 22,8 C 0,0 km/h (0 Bft)
07.10.2014 22:50 9,2 C 88 % 1016,3 hPa 0,0 l/m 0,0 km/h (0 Bft) S-SO 157 7,3 C 22,8 C 0,0 km/h (0 Bft)
07.10.2014 23:00 8,9 C 88 % 1016,5 hPa 0,0 l/m 0,0 km/h (0 Bft) S-SO 157 7,0 C 22,8 C 0,0 km/h (0 Bft)
07.10.2014 23:10 8,6 C 88 % 1016,5 hPa 0,0 l/m 0,0 km/h (0 Bft) S-SO 157 6,7 C 22,8 C 0,0 km/h (0 Bft)
07.10.2014 23:20 8,7 C 89 % 1017,3 hPa 0,0 l/m 0,0 km/h (0 Bft) S-SO 157 7,0 C 22,8 C 0,0 km/h (0 Bft)
07.10.2014 23:30 9,8 C 90 % 1017,3 hPa 0,0 l/m 0,0 km/h (0 Bft) S-SO 157 8,2 C 22,8 C 0,0 km/h (0 Bft)
07.10.2014 23:40 9,6 C 89 % 1017,7 hPa 0,0 l/m 0,0 km/h (0 Bft) S-SO 157 7,9 C 22,8 C 0,0 km/h (0 Bft)
07.10.2014 23:50 11,2 C 89 % 1017,7 hPa 0,0 l/m 0,0 km/h (0 Bft) S-SO 157 9,5 C 22,8 C 0,0 km/h (0 Bft)
_ Min-Zeit 06:50 14:50 09:20 - 23:50 - - 06:50 23:50 23:50
Minimum _ 4,3 C 33 % 1013,8 hPa - 0,0 km/h (0 Bft) - - 3,4 C 22,8 C 0,0 km/h (0 Bft)
_ Max-Zeit 12:30 08:10 23:50 23:50 23:50 - - 10:30 23:50 23:50
Maximum _ 24,3 C 95 % 1017,7 hPa 0,0 l/m 0,0 km/h
S-SO (0 Bft)
- - 11,4 C 22,8 C 0,0 km/h
S-SO (0 Bft)
Durchschnitt _ 12,3 C 75 % 1014,5 hPa #0,0 l/m 0,0 km/h (0 Bft) - - - 7,1 C 22,8 C 0,0 km/h (0 Bft)